Time;durP1;ratioP1;P1;durP2;ratioP2;P2;SDS_P1;SDS_P2;PMS_P1;PMS_P2;Temp;Humidity;BMP_temperature;BMP_pressure;BME280_temperature;BME280_humidity;BME280_pressure;Samples;Min_cycle;Max_cycle;Signal;HPM_P1;HPM_P2
2021/03/22 00:01:19;;;;;;;8.38;2.00;;;22.40;78.20;;;;;;4153328;28;20509;-61
2021/03/22 00:03:23;;;;;;;4.57;1.83;;;22.30;78.30;;;;;;4154770;28;20414;-62
2021/03/22 00:05:26;;;;;;;5.80;2.35;;;22.30;78.30;;;;;;4145781;28;20030;-63
2021/03/22 00:07:28;;;;;;;4.40;1.90;;;22.30;78.00;;;;;;4150928;28;20034;-66
2021/03/22 00:09:30;;;;;;;6.50;2.42;;;22.30;78.10;;;;;;4142245;28;20038;-63
2021/03/22 00:11:32;;;;;;;6.57;2.20;;;22.30;78.60;;;;;;4155216;28;20090;-64
2021/03/22 00:13:34;;;;;;;6.65;2.20;;;22.30;78.90;;;;;;4147623;28;20120;-67
2021/03/22 00:15:37;;;;;;;5.82;2.50;;;22.30;79.00;;;;;;4159762;28;20151;-62
2021/03/22 00:17:40;;;;;;;4.82;2.15;;;22.30;79.10;;;;;;4154307;28;20037;-65
2021/03/22 00:19:42;;;;;;;6.37;2.10;;;22.30;79.10;;;;;;4151197;28;20017;-65
2021/03/22 00:21:44;;;;;;;10.18;2.92;;;22.40;79.30;;;;;;4146953;28;20286;-62
2021/03/22 00:23:46;;;;;;;11.35;2.25;;;22.40;79.30;;;;;;4145328;28;20116;-62
2021/03/22 00:25:49;;;;;;;5.53;2.10;;;22.40;79.30;;;;;;4148155;28;20068;-60
2021/03/22 00:27:51;;;;;;;4.10;1.65;;;22.40;79.20;;;;;;4160080;28;20822;-60
2021/03/22 00:29:53;;;;;;;4.97;2.00;;;22.40;79.20;;;;;;4155133;28;20056;-60
2021/03/22 00:31:55;;;;;;;3.70;1.67;;;22.40;79.10;;;;;;4151461;28;20124;-62
2021/03/22 00:33:57;;;;;;;4.32;1.58;;;22.40;79.00;;;;;;4157050;28;20045;-62
2021/03/22 00:35:59;;;;;;;4.07;1.50;;;22.40;79.10;;;;;;4163077;28;20053;-64
2021/03/22 00:38:02;;;;;;;7.55;1.80;;;22.40;79.00;;;;;;4163713;28;20487;-66
2021/03/22 00:40:06;;;;;;;5.20;1.90;;;22.40;79.10;;;;;;4154183;28;20103;-63
2021/03/22 00:42:08;;;;;;;6.80;1.80;;;22.50;79.20;;;;;;4144191;28;20049;-64
2021/03/22 00:44:10;;;;;;;9.23;2.13;;;22.50;79.20;;;;;;4148183;28;20057;-64
2021/03/22 00:46:12;;;;;;;7.07;2.10;;;22.50;79.20;;;;;;4146377;28;20046;-64
2021/03/22 00:48:15;;;;;;;9.55;2.38;;;22.40;79.00;;;;;;4148752;28;20368;-63
2021/03/22 00:50:38;;;;;;;5.70;2.05;;;22.40;79.00;;;;;;4148732;28;20029;-64
2021/03/22 00:52:40;;;;;;;9.90;2.08;;;22.40;79.10;;;;;;4150392;28;20367;-64
2021/03/22 00:54:43;;;;;;;4.15;1.58;;;22.40;79.10;;;;;;4144686;28;20547;-64
2021/03/22 00:56:45;;;;;;;7.45;1.77;;;22.40;79.10;;;;;;4148457;28;20144;-64
2021/03/22 00:58:47;;;;;;;4.82;1.90;;;22.40;79.10;;;;;;4147551;28;20036;-63
2021/03/22 01:00:55;;;;;;;4.15;1.92;;;22.40;79.20;;;;;;4143667;28;20049;-64
2021/03/22 01:02:58;;;;;;;4.63;1.70;;;22.40;79.20;;;;;;4148459;28;20511;-63
2021/03/22 01:05:00;;;;;;;7.85;2.03;;;22.40;79.20;;;;;;4144023;28;20036;-64
2021/03/22 01:07:03;;;;;;;7.07;2.05;;;22.40;79.50;;;;;;4151116;28;20499;-64
2021/03/22 01:09:06;;;;;;;5.70;2.10;;;22.40;79.40;;;;;;4147256;28;20406;-62
2021/03/22 01:11:11;;;;;;;8.43;1.80;;;22.40;79.30;;;;;;4149077;28;20102;-60
2021/03/22 01:13:17;;;;;;;4.30;1.80;;;22.40;79.30;;;;;;4150909;28;20038;-60
2021/03/22 01:15:20;;;;;;;7.43;1.98;;;22.40;79.30;;;;;;4147738;28;20037;-70
2021/03/22 01:17:22;;;;;;;5.50;1.90;;;22.40;79.30;;;;;;4146910;28;20094;-63
2021/03/22 01:19:28;;;;;;;4.40;1.80;;;22.40;79.30;;;;;;4151806;28;20069;-64
2021/03/22 01:21:41;;;;;;;3.83;1.60;;;22.40;79.40;;;;;;4151793;28;20458;-65
2021/03/22 01:23:43;;;;;;;3.25;1.77;;;22.40;79.30;;;;;;4148905;28;20406;-62
2021/03/22 01:25:45;;;;;;;5.45;1.65;;;22.40;79.30;;;;;;4148774;28;20022;-61
2021/03/22 01:27:48;;;;;;;6.30;2.17;;;22.40;79.40;;;;;;4161919;28;20461;-61
2021/03/22 01:29:50;;;;;;;5.82;2.25;;;22.40;79.40;;;;;;4163553;28;20044;-61
2021/03/22 01:31:58;;;;;;;6.10;1.90;;;22.40;79.40;;;;;;4165045;28;20028;-61
2021/03/22 01:34:00;;;;;;;4.55;2.08;;;22.40;79.50;;;;;;4165108;28;20102;-61
2021/03/22 01:36:10;;;;;;;4.68;1.70;;;22.40;79.60;;;;;;4159100;28;20270;-60
2021/03/22 01:38:13;;;;;;;8.40;1.90;;;22.40;79.50;;;;;;4152137;28;20038;-61
2021/03/22 01:40:35;;;;;;;5.07;1.85;;;22.40;79.50;;;;;;4151614;28;20416;-60
2021/03/22 01:42:49;;;;;;;4.95;1.77;;;22.40;79.50;;;;;;4159180;28;20148;-64
2021/03/22 01:45:08;;;;;;;3.67;1.85;;;22.40;79.60;;;;;;4159590;28;20230;-64
2021/03/22 01:47:22;;;;;;;4.82;2.03;;;22.40;79.50;;;;;;4146506;28;20116;-63
2021/03/22 01:49:26;;;;;;;6.43;2.28;;;22.40;79.40;;;;;;4150748;28;20045;-62
2021/03/22 01:51:29;;;;;;;10.15;2.40;;;22.40;79.10;;;;;;4155148;28;20061;-60
2021/03/22 01:53:31;;;;;;;6.65;2.15;;;22.40;79.10;;;;;;4150987;28;20030;-62
2021/03/22 01:55:33;;;;;;;7.03;2.40;;;22.40;79.20;;;;;;4169728;28;20029;-61
2021/03/22 01:57:38;;;;;;;13.27;2.33;;;22.40;79.10;;;;;;4156745;28;20065;-68
2021/03/22 01:59:40;;;;;;;21.02;3.63;;;22.40;79.30;;;;;;4146531;28;20086;-69
2021/03/22 02:01:48;;;;;;;12.52;2.83;;;22.40;79.20;;;;;;4154258;28;20095;-69
2021/03/22 02:03:51;;;;;;;9.75;2.97;;;22.40;79.00;;;;;;4148104;28;20046;-66
2021/03/22 02:05:53;;;;;;;9.75;1.80;;;22.40;78.90;;;;;;4155190;28;20149;-65
2021/03/22 02:08:01;;;;;;;12.65;2.92;;;22.40;78.70;;;;;;4164902;28;20081;-63
2021/03/22 02:10:06;;;;;;;11.85;2.55;;;22.40;78.90;;;;;;4146605;28;20118;-63
2021/03/22 02:12:19;;;;;;;19.67;3.33;;;22.40;79.60;;;;;;4150042;28;20044;-61
2021/03/22 02:14:22;;;;;;;18.52;2.83;;;22.40;79.30;;;;;;4162724;28;20103;-62
2021/03/22 02:16:24;;;;;;;16.90;2.83;;;22.40;79.60;;;;;;4164655;28;20017;-60
2021/03/22 02:18:55;;;;;;;10.50;3.05;;;22.40;79.90;;;;;;4154833;28;20052;-59
2021/03/22 02:21:21;;;;;;;15.85;2.80;;;22.50;80.00;;;;;;4148618;28;20037;-61
2021/03/22 02:23:35;;;;;;;14.90;2.78;;;22.50;80.10;;;;;;4146240;28;20483;-64
2021/03/22 02:25:59;;;;;;;8.55;2.40;;;22.50;80.10;;;;;;4151778;28;20034;-61
2021/03/22 02:28:49;;;;;;;11.80;2.75;;;22.50;80.00;;;;;;4145966;28;20037;-63
2021/03/22 02:31:10;;;;;;;9.88;2.88;;;22.60;80.20;;;;;;4148724;28;20099;-61
2021/03/22 02:33:18;;;;;;;10.48;2.50;;;22.60;80.40;;;;;;4155795;28;20052;-61
2021/03/22 02:35:40;;;;;;;11.02;2.63;;;22.60;80.30;;;;;;4147572;28;20076;-62
2021/03/22 02:37:55;;;;;;;7.35;2.15;;;22.70;80.30;;;;;;4162385;28;20076;-65
2021/03/22 02:40:18;;;;;;;11.07;1.83;;;22.70;80.30;;;;;;4155568;28;20037;-64
2021/03/22 02:42:22;;;;;;;9.07;2.77;;;22.60;80.10;;;;;;4150369;28;20079;-63
2021/03/22 02:44:28;;;;;;;6.60;2.17;;;22.70;80.10;;;;;;4141135;28;20274;-75
2021/03/22 02:46:31;;;;;;;6.95;2.70;;;22.70;80.10;;;;;;4143963;28;20061;-65
2021/03/22 02:48:34;;;;;;;5.20;2.22;;;22.70;80.10;;;;;;4137768;28;20140;-66
2021/03/22 02:50:40;;;;;;;6.72;2.05;;;22.70;80.10;;;;;;4143523;28;20086;-62
2021/03/22 02:52:48;;;;;;;6.70;2.90;;;22.70;80.00;;;;;;4161113;28;20025;-65
2021/03/22 02:55:05;;;;;;;8.73;2.85;;;22.70;80.00;;;;;;4139188;28;20495;-62
2021/03/22 02:57:15;;;;;;;9.65;2.30;;;22.70;80.00;;;;;;4140768;28;20065;-63
2021/03/22 02:59:28;;;;;;;6.72;2.40;;;22.70;80.00;;;;;;4142109;28;20481;-61
2021/03/22 03:01:39;;;;;;;6.22;2.88;;;22.70;80.00;;;;;;4157019;28;20044;-64
2021/03/22 03:03:44;;;;;;;5.60;2.08;;;22.80;80.00;;;;;;4154721;28;20183;-64
2021/03/22 03:05:54;;;;;;;4.45;2.15;;;22.70;79.90;;;;;;4171478;28;20045;-64
2021/03/22 03:07:58;;;;;;;11.32;2.72;;;22.70;79.90;;;;;;4161697;28;20599;-64
2021/03/22 03:10:00;;;;;;;9.15;2.58;;;22.80;79.90;;;;;;4157396;28;20118;-61
2021/03/22 03:12:17;;;;;;;4.10;2.08;;;22.80;79.80;;;;;;4155967;28;20033;-61
2021/03/22 03:14:20;;;;;;;9.32;2.40;;;22.80;79.80;;;;;;4165432;28;20246;-70
2021/03/22 03:16:22;;;;;;;5.43;2.13;;;22.80;79.70;;;;;;4152294;28;20415;-64
2021/03/22 03:18:24;;;;;;;4.40;1.98;;;22.80;79.60;;;;;;4154839;28;20041;-65
2021/03/22 03:20:31;;;;;;;5.40;2.05;;;22.80;79.50;;;;;;4151116;28;20087;-65
2021/03/22 03:22:33;;;;;;;5.63;1.92;;;22.80;79.50;;;;;;4159681;28;20052;-63
2021/03/22 03:24:37;;;;;;;4.57;1.88;;;22.80;79.50;;;;;;4156029;28;20033;-65
2021/03/22 03:26:40;;;;;;;5.78;2.03;;;22.80;79.60;;;;;;4152833;28;20034;-61
2021/03/22 03:28:42;;;;;;;5.82;2.20;;;22.80;79.60;;;;;;4139660;28;20112;-63
2021/03/22 03:30:44;;;;;;;6.70;2.25;;;22.80;79.50;;;;;;4144953;28;20033;-67
2021/03/22 03:32:47;;;;;;;5.38;2.10;;;22.80;79.50;;;;;;4140996;28;20045;-60
2021/03/22 03:34:49;;;;;;;7.32;2.00;;;22.80;79.50;;;;;;4140380;28;20175;-60
2021/03/22 03:36:51;;;;;;;6.38;2.08;;;22.80;79.50;;;;;;4142777;28;20069;-59
2021/03/22 03:38:53;;;;;;;5.22;2.00;;;22.80;79.50;;;;;;4138131;28;20036;-59
2021/03/22 03:40:58;;;;;;;4.18;2.10;;;22.80;79.40;;;;;;4148009;28;20033;-61
2021/03/22 03:43:01;;;;;;;5.75;2.47;;;22.80;79.40;;;;;;4154635;28;20120;-65
2021/03/22 03:45:10;;;;;;;5.93;2.00;;;22.80;79.40;;;;;;4151351;28;20558;-64
2021/03/22 03:47:12;;;;;;;5.43;1.98;;;22.80;80.00;;;;;;4152451;28;20064;-61
2021/03/22 03:49:15;;;;;;;4.40;2.10;;;22.80;79.40;;;;;;4152214;28;20493;-59
2021/03/22 03:51:17;;;;;;;4.63;2.10;;;22.80;79.40;;;;;;4147188;28;20132;-61
2021/03/22 03:53:19;;;;;;;4.65;1.98;;;22.80;79.40;;;;;;4139956;28;20481;-62
2021/03/22 03:55:25;;;;;;;3.42;2.17;;;22.80;79.30;;;;;;4153639;28;20119;-62
2021/03/22 03:57:27;;;;;;;7.45;2.60;;;22.80;79.30;;;;;;4148034;28;20049;-65
2021/03/22 03:59:30;;;;;;;13.63;2.58;;;22.80;79.30;;;;;;4139033;28;20033;-58
2021/03/22 04:01:33;;;;;;;5.18;1.92;;;22.80;79.00;;;;;;4141558;28;20374;-57
2021/03/22 04:03:40;;;;;;;9.38;2.42;;;22.80;79.20;;;;;;4138761;28;20352;-52
2021/03/22 04:05:42;;;;;;;5.55;1.90;;;22.80;79.00;;;;;;4137971;28;20120;-60
2021/03/22 04:07:44;;;;;;;4.18;2.10;;;22.80;79.00;;;;;;4142834;28;20036;-58
2021/03/22 04:09:48;;;;;;;7.18;2.38;;;22.80;79.00;;;;;;4141010;28;20041;-58
2021/03/22 04:11:51;;;;;;;7.75;2.05;;;22.80;79.00;;;;;;4146939;28;20127;-58
2021/03/22 04:13:54;;;;;;;16.40;2.47;;;22.80;79.00;;;;;;4160433;28;20136;-56
2021/03/22 04:15:56;;;;;;;6.65;2.20;;;22.90;79.30;;;;;;4149737;28;20594;-56
2021/03/22 04:17:58;;;;;;;7.43;2.00;;;22.80;79.30;;;;;;4145922;28;20413;-57
2021/03/22 04:20:01;;;;;;;4.78;1.80;;;22.90;79.30;;;;;;4149345;28;21232;-56
2021/03/22 04:22:03;;;;;;;5.65;2.33;;;22.90;79.30;;;;;;4164751;28;20122;-56
2021/03/22 04:24:07;;;;;;;4.55;2.00;;;22.90;79.20;;;;;;4163823;28;20044;-55
2021/03/22 04:26:10;;;;;;;5.53;2.35;;;22.90;79.30;;;;;;4163824;28;20025;-60
2021/03/22 04:28:12;;;;;;;4.57;2.10;;;22.90;79.30;;;;;;4162311;28;20118;-56
2021/03/22 04:30:15;;;;;;;4.80;1.73;;;22.90;79.40;;;;;;4165424;28;20041;-57
2021/03/22 04:32:17;;;;;;;4.38;1.70;;;22.90;79.60;;;;;;4158218;28;20022;-56
2021/03/22 04:34:19;;;;;;;3.70;1.75;;;22.90;79.70;;;;;;4161695;28;20117;-59
2021/03/22 04:36:25;;;;;;;4.60;1.90;;;22.90;79.60;;;;;;4144234;28;23973;-60
2021/03/22 04:38:27;;;;;;;3.97;1.73;;;22.90;79.70;;;;;;4152290;28;20072;-60
2021/03/22 04:40:30;;;;;;;4.20;2.22;;;22.90;79.70;;;;;;4160690;28;20028;-58
2021/03/22 04:42:32;;;;;;;5.53;1.90;;;22.90;79.70;;;;;;4147155;28;20057;-60
2021/03/22 04:44:34;;;;;;;4.00;1.77;;;22.90;79.70;;;;;;4148683;28;20053;-59
2021/03/22 04:46:37;;;;;;;4.03;1.67;;;22.90;79.60;;;;;;4160750;28;20122;-60
2021/03/22 04:48:39;;;;;;;4.07;1.90;;;22.90;79.50;;;;;;4163807;28;20094;-60
2021/03/22 04:50:41;;;;;;;4.63;1.95;;;22.90;79.60;;;;;;4152727;28;20041;-60
2021/03/22 04:52:43;;;;;;;5.40;1.90;;;22.90;79.50;;;;;;4162670;28;20021;-58
2021/03/22 04:54:46;;;;;;;5.30;2.08;;;22.90;79.50;;;;;;4151238;28;20033;-62
2021/03/22 04:56:48;;;;;;;4.07;1.80;;;22.90;79.50;;;;;;4146243;28;20042;-61
2021/03/22 04:58:50;;;;;;;6.40;2.33;;;22.90;79.10;;;;;;4147280;28;20043;-61
2021/03/22 05:00:52;;;;;;;5.13;2.13;;;22.90;79.10;;;;;;4153523;28;20125;-57
2021/03/22 05:02:55;;;;;;;4.05;2.10;;;22.90;79.10;;;;;;4149726;28;20041;-60
2021/03/22 05:04:57;;;;;;;3.92;1.95;;;22.90;79.20;;;;;;4152000;28;20449;-57
2021/03/22 05:06:59;;;;;;;7.50;2.30;;;22.90;78.90;;;;;;4149057;28;20052;-56
2021/03/22 05:09:01;;;;;;;6.38;2.28;;;22.90;78.80;;;;;;4139706;28;20037;-58
2021/03/22 05:11:04;;;;;;;5.03;1.83;;;22.90;78.80;;;;;;4150391;28;20021;-59
2021/03/22 05:13:08;;;;;;;3.58;1.88;;;22.90;78.80;;;;;;4145364;28;20041;-58
2021/03/22 05:15:10;;;;;;;4.30;1.80;;;22.90;78.80;;;;;;4144026;28;20042;-59
2021/03/22 05:17:13;;;;;;;5.40;2.30;;;22.90;78.90;;;;;;4126548;28;20033;-59
2021/03/22 05:19:15;;;;;;;3.75;2.00;;;23.00;79.10;;;;;;4136876;28;20079;-59
2021/03/22 05:21:17;;;;;;;6.07;2.28;;;22.90;79.20;;;;;;4141041;28;20037;-59
2021/03/22 05:23:25;;;;;;;4.15;2.00;;;22.90;79.10;;;;;;4131351;28;20049;-57
2021/03/22 05:25:27;;;;;;;5.50;2.38;;;22.90;79.00;;;;;;4138297;28;20147;-57
2021/03/22 05:27:29;;;;;;;5.47;2.30;;;22.90;79.00;;;;;;4139329;28;20123;-54
2021/03/22 05:29:31;;;;;;;5.97;2.50;;;22.90;78.80;;;;;;4135141;28;20044;-55
2021/03/22 05:31:34;;;;;;;8.15;2.50;;;22.80;78.70;;;;;;4146118;28;20132;-56
2021/03/22 05:33:37;;;;;;;5.97;2.63;;;22.80;78.60;;;;;;4146084;28;20130;-57
2021/03/22 05:35:40;;;;;;;5.45;3.03;;;22.80;78.60;;;;;;4144887;28;20031;-57
2021/03/22 05:37:42;;;;;;;;;;;22.80;78.80;;;;;;4146263;28;20025;-55
2021/03/22 05:39:44;;;;;;;8.13;2.50;;;22.80;78.80;;;;;;4142992;28;20023;-58
2021/03/22 05:42:23;;;;;;;5.43;2.75;;;22.70;78.70;;;;;;4139694;28;20153;-57
2021/03/22 05:44:46;;;;;;;8.98;2.92;;;22.70;78.70;;;;;;4141976;28;20045;-55
2021/03/22 05:47:03;;;;;;;8.80;2.85;;;22.70;78.80;;;;;;4152398;28;20033;-56
2021/03/22 05:49:18;;;;;;;6.95;2.50;;;22.70;79.00;;;;;;4148172;28;20050;-57
2021/03/22 05:51:36;;;;;;;7.95;3.03;;;22.60;79.00;;;;;;4145713;28;20064;-57
2021/03/22 05:53:41;;;;;;;5.15;2.50;;;22.60;79.00;;;;;;4148955;28;20057;-56
2021/03/22 05:55:58;;;;;;;6.65;2.88;;;22.60;79.00;;;;;;4148862;28;20022;-56
2021/03/22 05:58:42;;;;;;;7.25;2.65;;;22.60;79.20;;;;;;4148391;28;20052;-56
2021/03/22 06:01:02;;;;;;;7.50;2.15;;;22.60;79.50;;;;;;4148574;28;20051;-54
2021/03/22 06:03:28;;;;;;;8.43;2.50;;;22.60;80.40;;;;;;4152366;28;20636;-58
2021/03/22 06:05:58;;;;;;;5.95;2.50;;;22.60;79.90;;;;;;4149199;28;20449;-56
2021/03/22 06:08:25;;;;;;;7.32;2.03;;;22.60;79.90;;;;;;4123229;28;20036;-47
2021/03/22 06:10:38;;;;;;;5.22;1.67;;;22.60;79.70;;;;;;4118904;28;21522;-54
2021/03/22 06:13:00;;;;;;;;;;;22.60;79.90;;;;;;4152797;28;20061;-54
2021/03/22 06:15:05;;;;;;;4.45;1.73;;;22.60;79.80;;;;;;4155595;28;20366;-51
2021/03/22 06:17:33;;;;;;;4.18;1.67;;;22.60;79.80;;;;;;4160247;28;20021;-51
2021/03/22 06:19:41;;;;;;;4.07;1.85;;;22.70;79.90;;;;;;4140048;28;20045;-54
2021/03/22 06:21:47;;;;;;;4.65;1.65;;;22.70;79.90;;;;;;4152651;28;20543;-52
2021/03/22 06:23:50;;;;;;;9.05;2.20;;;22.70;79.90;;;;;;4156246;28;20416;-55
2021/03/22 06:25:52;;;;;;;5.82;1.90;;;22.70;80.00;;;;;;4153480;28;20135;-52
2021/03/22 06:27:56;;;;;;;2.77;1.80;;;22.70;79.90;;;;;;4147654;28;20085;-58
2021/03/22 06:29:58;;;;;;;3.83;1.80;;;22.70;80.00;;;;;;4147599;28;20124;-59
2021/03/22 06:32:23;;;;;;;4.13;1.88;;;22.70;80.10;;;;;;4163294;28;20033;-56
2021/03/22 06:34:56;;;;;;;4.88;2.10;;;22.70;80.00;;;;;;4142850;28;20053;-57
2021/03/22 06:37:01;;;;;;;6.77;1.90;;;22.70;80.10;;;;;;4148241;28;20044;-60
2021/03/22 06:39:08;;;;;;;4.53;1.80;;;22.70;80.10;;;;;;4148880;28;20443;-56
2021/03/22 06:41:31;;;;;;;6.72;2.00;;;22.70;80.10;;;;;;4148629;28;20116;-60
2021/03/22 06:43:33;;;;;;;5.28;2.28;;;22.70;80.10;;;;;;4145855;28;20411;-60
2021/03/22 06:45:42;;;;;;;4.38;2.08;;;22.70;80.10;;;;;;4141062;28;20448;-57
2021/03/22 06:47:44;;;;;;;5.43;2.40;;;22.70;79.90;;;;;;4151989;28;20036;-53
2021/03/22 06:49:50;;;;;;;5.72;2.40;;;22.70;79.60;;;;;;4158592;28;20487;-51
2021/03/22 06:52:07;;;;;;;6.43;2.45;;;22.70;79.70;;;;;;4146795;28;20041;-56
2021/03/22 06:54:29;;;;;;;5.38;2.33;;;22.70;79.80;;;;;;4147994;28;20048;-57
2021/03/22 06:56:36;;;;;;;9.82;2.90;;;22.70;79.80;;;;;;4159263;28;20029;-58
2021/03/22 06:58:38;;;;;;;5.90;2.50;;;22.70;79.90;;;;;;4144437;28;20029;-54
2021/03/22 07:00:40;;;;;;;6.20;2.35;;;22.70;79.90;;;;;;4151176;28;20052;-59
2021/03/22 07:02:47;;;;;;;6.15;2.42;;;22.70;80.00;;;;;;4138003;28;20127;-52
2021/03/22 07:04:50;;;;;;;7.45;2.25;;;22.70;79.90;;;;;;4146977;28;20286;-51
2021/03/22 07:07:12;;;;;;;8.27;2.15;;;22.70;79.80;;;;;;4150075;28;20127;-53
2021/03/22 07:09:35;;;;;;;6.05;2.80;;;22.70;79.70;;;;;;4145236;28;20477;-56
2021/03/22 07:11:49;;;;;;;8.30;2.42;;;22.70;79.50;;;;;;4147209;28;20044;-53
2021/03/22 07:13:59;;;;;;;9.25;2.45;;;22.70;79.60;;;;;;4151469;28;20069;-56
2021/03/22 07:16:20;;;;;;;6.45;2.35;;;22.70;79.60;;;;;;4146997;28;20040;-59
2021/03/22 07:18:26;;;;;;;4.85;2.22;;;22.70;79.50;;;;;;4146668;28;20474;-60
2021/03/22 07:20:29;;;;;;;6.13;2.10;;;22.70;79.50;;;;;;4150408;28;20033;-58
2021/03/22 07:22:31;;;;;;;6.40;2.55;;;22.70;79.40;;;;;;4151903;28;20133;-57
2021/03/22 07:24:59;;;;;;;7.60;2.45;;;22.70;79.40;;;;;;4161001;28;20041;-59
2021/03/22 07:27:31;;;;;;;7.47;2.28;;;22.70;79.30;;;;;;4164780;28;20545;-56
2021/03/22 07:29:59;;;;;;;6.32;2.50;;;22.80;79.20;;;;;;4159982;28;20082;-55
2021/03/22 07:32:19;;;;;;;6.55;2.25;;;22.70;79.20;;;;;;4168215;28;20039;-56
2021/03/22 07:34:37;;;;;;;8.02;2.50;;;22.70;78.70;;;;;;4165370;28;20049;-56
2021/03/22 07:36:46;;;;;;;8.38;2.45;;;22.70;78.80;;;;;;4174345;28;20114;-56
2021/03/22 07:39:14;;;;;;;5.95;2.10;;;22.70;79.10;;;;;;4165689;28;20055;-55
2021/03/22 07:41:39;;;;;;;7.28;2.22;;;22.70;79.30;;;;;;4155490;28;20029;-48
2021/03/22 07:44:05;;;;;;;7.75;2.25;;;22.70;79.40;;;;;;4151922;28;20053;-50
2021/03/22 07:46:44;;;;;;;8.23;2.45;;;22.70;79.60;;;;;;4149853;28;20033;-48
2021/03/22 07:48:51;;;;;;;11.35;3.10;;;22.70;79.40;;;;;;4153059;28;20045;-57
2021/03/22 07:51:14;;;;;;;10.75;2.55;;;22.70;79.30;;;;;;4158885;28;20041;-57
2021/03/22 07:53:28;;;;;;;11.20;2.38;;;22.70;79.40;;;;;;4143336;28;20040;-59
2021/03/22 07:55:48;;;;;;;18.13;3.00;;;22.70;79.30;;;;;;4174715;28;20431;-59
2021/03/22 07:58:27;;;;;;;6.75;1.77;;;22.70;79.20;;;;;;4163108;28;20219;-59
2021/03/22 08:00:56;;;;;;;8.10;2.13;;;22.70;79.20;;;;;;4145387;28;20060;-56
2021/03/22 08:03:21;;;;;;;8.77;1.95;;;22.70;79.20;;;;;;4142849;28;20037;-56
2021/03/22 08:05:44;;;;;;;6.57;2.10;;;22.70;79.20;;;;;;4160777;28;20032;-55
2021/03/22 08:08:00;;;;;;;5.90;1.80;;;22.70;79.30;;;;;;4145595;28;20026;-50
2021/03/22 08:10:20;;;;;;;8.32;1.98;;;22.70;79.30;;;;;;4145724;28;20395;-52
2021/03/22 08:12:41;;;;;;;5.65;2.47;;;22.70;79.30;;;;;;4153628;28;20051;-51
2021/03/22 08:14:44;;;;;;;5.97;1.92;;;22.60;79.30;;;;;;4159118;28;20059;-51
2021/03/22 08:17:15;;;;;;;6.90;2.22;;;22.60;79.30;;;;;;4153947;28;20028;-57
2021/03/22 08:19:20;;;;;;;5.60;2.13;;;22.60;79.30;;;;;;4141465;28;20041;-58
2021/03/22 08:21:53;;;;;;;6.93;2.10;;;22.60;79.40;;;;;;4147470;28;20136;-57
2021/03/22 08:24:22;;;;;;;6.75;1.60;;;22.60;79.40;;;;;;4158578;28;20523;-60
2021/03/22 08:26:59;;;;;;;5.18;1.67;;;22.60;79.50;;;;;;4140855;28;20456;-59
2021/03/22 08:29:19;;;;;;;10.07;2.10;;;22.60;79.70;;;;;;4141441;28;20072;-59
2021/03/22 08:31:50;;;;;;;5.13;1.95;;;22.60;79.80;;;;;;4139213;28;20125;-59
2021/03/22 08:34:00;;;;;;;4.97;2.00;;;22.60;79.80;;;;;;4140311;28;20467;-59
2021/03/22 08:36:23;;;;;;;4.22;1.95;;;22.50;79.80;;;;;;4135048;28;20563;-59
2021/03/22 08:38:56;;;;;;;6.80;1.90;;;22.50;79.90;;;;;;4136005;28;20108;-59
2021/03/22 08:40:59;;;;;;;6.00;2.00;;;22.50;80.00;;;;;;4140796;28;20439;-60
2021/03/22 08:43:05;;;;;;;4.10;1.90;;;22.50;80.00;;;;;;4143960;28;20097;-60
2021/03/22 08:45:22;;;;;;;4.75;1.85;;;22.50;80.00;;;;;;4141951;28;20346;-60
2021/03/22 08:47:47;;;;;;;4.25;1.67;;;22.50;80.00;;;;;;4155705;28;20820;-59
2021/03/22 08:50:02;;;;;;;4.15;1.83;;;22.50;80.00;;;;;;4154221;28;20060;-61
2021/03/22 08:52:05;;;;;;;4.47;1.73;;;22.50;80.00;;;;;;4158809;28;20031;-60
2021/03/22 08:54:25;;;;;;;6.43;1.80;;;22.50;80.00;;;;;;4151842;28;20045;-59
2021/03/22 08:56:38;;;;;;;4.93;1.88;;;22.50;80.00;;;;;;4158180;28;20029;-59
2021/03/22 08:58:47;;;;;;;3.80;1.80;;;22.50;80.00;;;;;;4156186;28;20133;-57
2021/03/22 09:00:51;;;;;;;8.55;2.53;;;22.50;80.10;;;;;;4144033;28;20053;-58
2021/03/22 09:03:07;;;;;;;5.25;1.83;;;22.50;80.30;;;;;;4142253;28;20127;-59
2021/03/22 09:05:24;;;;;;;6.18;2.33;;;22.50;80.30;;;;;;4141587;28;20057;-57
2021/03/22 09:07:32;;;;;;;8.23;2.10;;;22.50;80.20;;;;;;4139463;28;20058;-58
2021/03/22 09:09:38;;;;;;;5.90;2.30;;;22.50;80.40;;;;;;4144534;28;20061;-59
2021/03/22 09:11:50;;;;;;;7.65;2.28;;;22.50;80.50;;;;;;4141927;28;20045;-58
2021/03/22 09:14:18;;;;;;;5.43;1.73;;;22.50;80.50;;;;;;4143939;28;20129;-59
2021/03/22 09:16:23;;;;;;;8.05;2.38;;;22.50;80.50;;;;;;4145071;28;20045;-58
2021/03/22 09:18:25;;;;;;;6.50;2.05;;;22.60;81.20;;;;;;4139338;28;20049;-60
2021/03/22 09:20:32;;;;;;;6.85;2.28;;;22.60;80.60;;;;;;4140255;28;20026;-58
2021/03/22 09:22:42;;;;;;;5.45;2.20;;;22.60;80.50;;;;;;4138393;28;20099;-57
2021/03/22 09:24:48;;;;;;;4.05;1.75;;;22.50;80.50;;;;;;4140449;28;20033;-58
2021/03/22 09:26:53;;;;;;;7.13;1.92;;;22.60;80.50;;;;;;4136905;28;20037;-55
2021/03/22 09:29:33;;;;;;;2.83;1.58;;;22.60;80.50;;;;;;4143086;28;20025;-58
2021/03/22 09:31:41;;;;;;;7.55;2.33;;;22.50;80.40;;;;;;4138025;28;20076;-57
2021/03/22 09:34:00;;;;;;;10.10;2.30;;;22.60;80.30;;;;;;4140470;28;20045;-59
2021/03/22 09:36:10;;;;;;;4.53;1.90;;;22.50;80.00;;;;;;4147381;28;20062;-55
2021/03/22 09:38:39;;;;;;;9.25;2.35;;;22.50;80.00;;;;;;4157698;28;20354;-60
2021/03/22 09:40:41;;;;;;;5.65;1.80;;;22.50;80.00;;;;;;4144301;28;20041;-51
2021/03/22 09:42:43;;;;;;;6.35;2.22;;;22.50;80.00;;;;;;4143233;28;20053;-57
2021/03/22 09:44:57;;;;;;;5.05;2.20;;;22.50;79.40;;;;;;4139316;28;20573;-55
2021/03/22 09:47:15;;;;;;;4.10;1.88;;;22.50;79.00;;;;;;4147635;28;20067;-55
2021/03/22 09:49:21;;;;;;;6.35;2.13;;;22.50;78.80;;;;;;4144917;28;20048;-60
2021/03/22 09:51:31;;;;;;;4.47;1.90;;;22.50;79.10;;;;;;4140697;28;20530;-60
2021/03/22 09:53:53;;;;;;;3.00;1.80;;;22.50;79.40;;;;;;4146223;28;20030;-60
2021/03/22 09:56:00;;;;;;;5.18;2.00;;;22.40;79.60;;;;;;4145767;28;20029;-60
2021/03/22 09:58:45;;;;;;;5.95;2.03;;;22.40;79.70;;;;;;4142924;28;20074;-59
2021/03/22 10:00:53;;;;;;;;;;;22.50;79.90;;;;;;4092506;28;20046;-60
2021/03/22 10:03:19;;;;;;;3.47;1.63;;;22.50;80.00;;;;;;4119058;28;19932;-54
2021/03/22 10:05:47;;;;;;;9.60;2.60;;;22.50;80.10;;;;;;4128805;28;20159;-60
2021/03/22 10:08:12;;;;;;;5.35;1.80;;;22.50;80.20;;;;;;4126502;28;20041;-59
2021/03/22 10:10:34;;;;;;;4.45;2.17;;;22.50;80.20;;;;;;4125482;28;20045;-51
2021/03/22 10:12:41;;;;;;;11.02;2.45;;;22.50;80.20;;;;;;4137496;28;20045;-59
2021/03/22 10:14:48;;;;;;;5.43;2.47;;;22.50;80.30;;;;;;4144034;28;20541;-56
2021/03/22 10:16:52;;;;;;;6.47;2.40;;;22.40;80.30;;;;;;4143332;28;20033;-58
2021/03/22 10:19:14;;;;;;;6.75;2.10;;;22.50;80.30;;;;;;4146692;28;20176;-60
2021/03/22 10:21:27;;;;;;;8.25;2.45;;;22.40;80.30;;;;;;4139856;28;20042;-61
2021/03/22 10:23:46;;;;;;;4.82;1.83;;;22.50;80.50;;;;;;4144358;28;20083;-60
2021/03/22 10:25:50;;;;;;;3.35;1.65;;;22.50;80.50;;;;;;4145913;28;20400;-60
2021/03/22 10:28:01;;;;;;;2.42;1.55;;;22.50;80.40;;;;;;4126693;28;20843;-55
2021/03/22 10:30:15;;;;;;;5.10;1.70;;;22.50;80.50;;;;;;4125470;28;20053;-61
2021/03/22 10:32:25;;;;;;;5.20;1.85;;;22.50;80.50;;;;;;4124748;28;20170;-60
2021/03/22 10:34:33;;;;;;;5.90;1.60;;;22.50;80.50;;;;;;4143740;28;20122;-59
2021/03/22 10:36:38;;;;;;;5.65;1.73;;;22.50;80.50;;;;;;4129643;28;20462;-60
2021/03/22 10:38:40;;;;;;;5.55;1.70;;;22.40;80.40;;;;;;4131876;28;20052;-57
2021/03/22 10:40:42;;;;;;;4.82;1.98;;;22.40;80.50;;;;;;4130525;28;20029;-58
2021/03/22 10:42:45;;;;;;;5.78;1.95;;;22.50;80.60;;;;;;4138397;28;20050;-61
2021/03/22 10:44:47;;;;;;;3.58;1.77;;;22.50;80.60;;;;;;4142457;28;20033;-59
2021/03/22 10:47:22;;;;;;;4.32;1.60;;;22.50;80.60;;;;;;4143786;28;20037;-58
2021/03/22 10:49:25;;;;;;;7.90;1.67;;;22.50;80.60;;;;;;4145544;28;20115;-61
2021/03/22 10:51:47;;;;;;;5.28;1.92;;;22.50;80.60;;;;;;4128438;28;20136;-61
2021/03/22 10:53:58;;;;;;;4.82;2.05;;;22.50;80.60;;;;;;4130891;28;20034;-60
2021/03/22 10:56:23;;;;;;;7.45;1.92;;;22.50;80.60;;;;;;4139858;28;20034;-60
2021/03/22 10:58:37;;;;;;;22.50;2.15;;;22.50;80.60;;;;;;4147332;28;20072;-60
2021/03/22 11:00:45;;;;;;;5.93;1.80;;;22.50;80.60;;;;;;4127282;28;20038;-59
2021/03/22 11:02:49;;;;;;;5.20;1.95;;;22.50;80.70;;;;;;4143905;28;20063;-57
2021/03/22 11:04:52;;;;;;;6.07;1.67;;;22.50;80.80;;;;;;4168135;28;20028;-57
2021/03/22 11:06:56;;;;;;;4.53;1.70;;;22.50;80.70;;;;;;4145554;28;20048;-59
2021/03/22 11:09:06;;;;;;;7.05;1.40;;;22.50;81.30;;;;;;4146289;28;20103;-59
2021/03/22 11:11:13;;;;;;;6.32;2.25;;;22.50;80.60;;;;;;4153099;28;20022;-56
2021/03/22 11:13:23;;;;;;;4.95;1.92;;;22.50;80.60;;;;;;4164119;28;20189;-60
2021/03/22 11:15:37;;;;;;;7.70;1.80;;;22.50;80.60;;;;;;4161682;28;20041;-59